createdAt,value
2019-02-06T00:02:56.477Z,122.37
2019-02-06T00:06:00.746Z,117.63
2019-02-06T00:09:11.254Z,119.80
2019-02-06T00:12:15.172Z,118.20
2019-02-06T00:15:19.127Z,123.83
2019-02-06T00:18:23.048Z,113.10
2019-02-06T00:21:26.869Z,107.37
2019-02-06T00:24:31.070Z,100.77
2019-02-06T00:27:34.960Z,110.03
2019-02-06T00:30:38.849Z,92.70
2019-02-06T00:33:43.015Z,103.30
2019-02-06T00:36:46.821Z,102.17
2019-02-06T00:39:50.634Z,103.63
2019-02-06T00:42:54.730Z,103.23
2019-02-06T00:45:58.618Z,100.90
2019-02-06T00:49:02.437Z,97.93
2019-02-06T00:52:06.412Z,93.27
2019-02-06T00:55:10.975Z,89.17
2019-02-06T00:58:14.893Z,88.63
2019-02-06T01:01:19.138Z,81.83
2019-02-06T01:04:23.129Z,77.17
2019-02-06T01:07:26.931Z,77.80
2019-02-06T01:10:31.018Z,67.37
2019-02-06T01:13:34.884Z,77.97
2019-02-06T01:16:38.810Z,75.80
2019-02-06T01:19:43.443Z,79.30
2019-02-06T01:22:47.403Z,75.87
2019-02-06T01:25:51.275Z,82.27
2019-02-06T01:28:55.402Z,81.60
2019-02-06T01:31:59.347Z,75.80
2019-02-06T01:35:03.224Z,80.53
2019-02-06T01:38:07.464Z,83.27
2019-02-06T01:41:11.457Z,89.33
2019-02-06T01:44:15.262Z,82.13
2019-02-06T01:47:19.079Z,84.97
2019-02-06T01:50:23.013Z,73.83
2019-02-06T01:53:26.983Z,76.03
2019-02-06T01:56:30.977Z,78.90
2019-02-06T01:59:34.943Z,71.23
2019-02-06T02:02:38.820Z,83.77
2019-02-06T02:05:42.618Z,79.70
2019-02-06T02:08:57.061Z,76.73
2019-02-06T02:12:00.998Z,77.17
2019-02-06T02:15:07.086Z,75.20
2019-02-06T02:18:10.958Z,67.97
2019-02-06T02:21:14.878Z,70.17
2019-02-06T02:24:18.748Z,66.73
2019-02-06T02:27:22.580Z,70.07
2019-02-06T02:30:34.594Z,60.37
2019-02-06T02:33:38.492Z,66.97
2019-02-06T02:36:42.362Z,67.23
2019-02-06T02:39:46.368Z,74.60
2019-02-06T02:42:50.284Z,67.97
2019-02-06T02:45:54.358Z,68.30
2019-02-06T02:48:58.282Z,76.30
2019-02-06T02:52:02.068Z,71.80
2019-02-06T02:55:06.755Z,69.13
2019-02-06T02:58:10.810Z,68.50
2019-02-06T03:01:35.861Z,74.10
2019-02-06T03:04:43.940Z,71.47
2019-02-06T03:07:47.837Z,76.97
2019-02-06T03:10:51.653Z,72.83
2019-02-06T03:13:55.546Z,69.33
2019-02-06T03:17:03.057Z,69.50
2019-02-06T03:20:06.245Z,75.80
2019-02-06T03:23:10.219Z,68.17
2019-02-06T03:26:14.160Z,80.10
2019-02-06T03:29:18.077Z,66.93
2019-02-06T03:32:21.891Z,71.77
2019-02-06T03:35:25.702Z,70.43
2019-02-06T03:38:29.513Z,73.30
2019-02-06T03:41:33.331Z,61.70
2019-02-06T03:44:37.228Z,67.13
2019-02-06T03:47:41.211Z,70.43
2019-02-06T03:50:45.093Z,75.47
2019-02-06T03:53:48.981Z,70.10
2019-02-06T03:56:52.790Z,80.10
2019-02-06T03:59:56.613Z,70.93
2019-02-06T04:03:00.502Z,77.50
2019-02-06T04:06:04.504Z,72.37
2019-02-06T04:09:09.318Z,73.30
2019-02-06T04:12:13.215Z,82.33
2019-02-06T04:15:17.107Z,83.83
2019-02-06T04:18:20.916Z,79.30
2019-02-06T04:21:24.789Z,74.63
2019-02-06T04:24:28.648Z,76.20
2019-02-06T04:27:32.454Z,74.53
2019-02-06T04:30:36.479Z,73.33
2019-02-06T04:33:40.275Z,75.87
2019-02-06T04:36:44.136Z,80.47
2019-02-06T04:39:48.005Z,75.23
2019-02-06T04:42:51.815Z,81.83
2019-02-06T04:45:55.652Z,76.00
2019-02-06T04:48:59.526Z,69.03
2019-02-06T04:52:03.358Z,72.17
2019-02-06T04:55:07.858Z,75.50
2019-02-06T04:58:11.758Z,71.00
2019-02-06T05:01:15.578Z,75.07
2019-02-06T05:04:19.389Z,78.57
2019-02-06T05:07:23.303Z,76.67
2019-02-06T05:10:27.161Z,82.03
2019-02-06T05:13:30.976Z,76.00
2019-02-06T05:16:34.847Z,83.83
2019-02-06T05:19:38.667Z,83.13
2019-02-06T05:22:42.460Z,87.23
2019-02-06T05:25:46.342Z,86.70
2019-02-06T05:28:50.252Z,83.57
2019-02-06T05:31:54.173Z,82.23
2019-02-06T05:34:57.971Z,89.10
2019-02-06T05:38:01.958Z,87.73
2019-02-06T05:41:05.961Z,88.87
2019-02-06T05:44:09.844Z,87.20
2019-02-06T05:47:13.667Z,93.03
2019-02-06T05:50:17.816Z,99.87
2019-02-06T05:53:21.699Z,94.13
2019-02-06T05:56:25.575Z,92.80
2019-02-06T05:59:29.854Z,89.93
2019-02-06T06:02:33.819Z,96.93
2019-02-06T06:05:37.730Z,94.37
2019-02-06T06:08:41.916Z,97.60
2019-02-06T06:11:45.883Z,101.60
2019-02-06T06:14:49.701Z,94.77
2019-02-06T06:17:53.524Z,92.40
2019-02-06T06:20:57.429Z,97.73
2019-02-06T06:24:01.355Z,95.50
2019-02-06T06:27:05.325Z,102.13
2019-02-06T06:30:11.495Z,95.70
2019-02-06T06:33:15.292Z,92.00
2019-02-06T06:36:19.092Z,98.07
2019-02-06T06:39:22.904Z,98.30
2019-02-06T06:42:26.725Z,104.70
2019-02-06T06:45:30.618Z,90.93
2019-02-06T06:48:34.791Z,101.30
2019-02-06T06:51:38.655Z,91.23
2019-02-06T06:54:42.460Z,93.97
2019-02-06T06:57:46.292Z,94.63
2019-02-06T07:00:50.210Z,93.27
2019-02-06T07:03:54.021Z,95.93
2019-02-06T07:06:57.913Z,87.87
2019-02-06T07:10:01.786Z,81.43
2019-02-06T07:13:05.757Z,91.90
2019-02-06T07:16:09.703Z,91.30
2019-02-06T07:19:13.505Z,88.00
2019-02-06T07:22:17.463Z,87.33
2019-02-06T07:25:21.417Z,86.93
2019-02-06T07:28:25.242Z,90.00
2019-02-06T07:31:29.063Z,83.37
2019-02-06T07:34:32.867Z,86.87
2019-02-06T07:37:36.843Z,83.60
2019-02-06T07:40:40.632Z,82.07
2019-02-06T07:43:44.529Z,85.70
2019-02-06T07:46:48.434Z,83.10
2019-02-06T07:49:52.322Z,82.47
2019-02-06T07:52:56.313Z,82.80
2019-02-06T07:56:00.208Z,79.80
2019-02-06T07:59:04.139Z,76.23
2019-02-06T08:02:08.119Z,81.60
2019-02-06T08:05:14.070Z,77.17
2019-02-06T08:08:17.975Z,72.70
2019-02-06T08:11:21.765Z,74.27
2019-02-06T08:14:25.686Z,75.53
2019-02-06T08:17:29.557Z,77.87
2019-02-06T08:20:33.450Z,78.00
2019-02-06T08:23:37.262Z,74.43
2019-02-06T08:26:41.103Z,76.70
2019-02-06T08:29:44.904Z,80.10
2019-02-06T08:32:48.836Z,83.57
2019-02-06T08:35:52.726Z,79.60
2019-02-06T08:38:56.553Z,74.73
2019-02-06T08:42:00.475Z,72.97
2019-02-06T08:45:05.120Z,80.70
2019-02-06T08:48:09.034Z,74.70
2019-02-06T08:51:12.836Z,79.60
2019-02-06T08:54:16.673Z,81.23
2019-02-06T08:57:20.559Z,75.50
2019-02-06T09:00:27.217Z,79.17
2019-02-06T09:03:31.118Z,80.37
2019-02-06T09:06:35.029Z,72.93
2019-02-06T09:09:38.834Z,76.60
2019-02-06T09:12:42.734Z,75.67
2019-02-06T09:15:46.584Z,66.03
2019-02-06T09:18:50.493Z,73.67
2019-02-06T09:21:54.363Z,75.47
2019-02-06T09:24:58.128Z,70.87
2019-02-06T09:28:02.022Z,76.67
2019-02-06T09:31:05.983Z,65.30
2019-02-06T09:34:09.964Z,64.57
2019-02-06T09:37:13.850Z,68.53
2019-02-06T09:40:19.486Z,61.23
2019-02-06T09:43:23.327Z,58.17
2019-02-06T09:46:27.127Z,56.73
2019-02-06T09:49:30.945Z,57.70
2019-02-06T09:52:34.831Z,63.97
2019-02-06T09:55:38.908Z,63.27
2019-02-06T09:58:42.787Z,63.87
2019-02-06T10:01:46.795Z,62.63
2019-02-06T10:04:50.867Z,58.23
2019-02-06T10:07:54.845Z,58.03
2019-02-06T10:10:58.680Z,53.20
2019-02-06T10:14:02.643Z,54.63
2019-02-06T10:17:06.562Z,55.33
2019-02-06T10:20:13.288Z,53.17
2019-02-06T10:23:17.241Z,56.00
2019-02-06T10:26:21.027Z,53.90
2019-02-06T10:29:24.864Z,49.17
2019-02-06T10:32:28.674Z,50.70
2019-02-06T10:35:32.580Z,48.90
2019-02-06T10:38:36.478Z,47.80
2019-02-06T10:41:40.442Z,44.07
2019-02-06T10:44:44.424Z,43.53
2019-02-06T10:47:48.622Z,44.73
2019-02-06T10:50:53.834Z,39.50
2019-02-06T10:53:57.705Z,36.63
2019-02-06T10:57:01.520Z,36.00
2019-02-06T11:00:12.305Z,38.73
2019-02-06T11:03:16.208Z,36.27
2019-02-06T11:06:20.106Z,34.73
2019-02-06T11:09:23.991Z,34.17
2019-02-06T11:12:27.812Z,39.27
2019-02-06T11:15:31.900Z,36.37
2019-02-06T11:18:35.859Z,37.57
2019-02-06T11:21:39.824Z,25.67
2019-02-06T11:24:43.630Z,33.07
2019-02-06T11:27:47.564Z,34.17
2019-02-06T11:30:51.542Z,32.77
2019-02-06T11:33:55.432Z,34.17
2019-02-06T11:36:59.327Z,35.83
2019-02-06T11:40:03.226Z,32.37
2019-02-06T11:43:07.364Z,32.17
2019-02-06T11:46:11.227Z,29.00
2019-02-06T11:49:16.153Z,24.47
2019-02-06T11:52:19.980Z,27.33
2019-02-06T11:55:24.699Z,29.30
2019-02-06T11:58:28.645Z,23.00
2019-02-06T12:01:36.460Z,26.43
2019-02-06T12:04:40.343Z,22.67
2019-02-06T12:07:44.312Z,21.23
2019-02-06T12:10:48.479Z,21.23
2019-02-06T12:13:52.423Z,20.93
2019-02-06T12:16:56.322Z,21.47
2019-02-06T12:20:00.184Z,18.17
2019-02-06T12:23:04.405Z,18.87
2019-02-06T12:26:08.388Z,20.73
2019-02-06T12:29:12.281Z,20.73
2019-02-06T12:32:16.185Z,21.07
2019-02-06T12:35:20.036Z,16.20
2019-02-06T12:38:23.922Z,17.93
2019-02-06T12:41:27.758Z,16.43
2019-02-06T12:44:32.630Z,19.77
2019-02-06T12:47:36.455Z,18.70
2019-02-06T12:50:40.398Z,18.57
2019-02-06T12:53:44.345Z,16.90
2019-02-06T12:56:48.218Z,14.43
2019-02-06T12:59:52.024Z,13.73
2019-02-06T13:02:59.651Z,10.30
2019-02-06T13:06:01.559Z,10.67
2019-02-06T13:09:08.759Z,11.50
2019-02-06T13:12:12.573Z,12.13
2019-02-06T13:15:16.718Z,8.60
2019-02-06T13:18:20.567Z,11.83
2019-02-06T13:21:24.364Z,10.70
2019-02-06T13:24:28.252Z,12.73
2019-02-06T13:27:32.055Z,10.70
2019-02-06T13:30:36.633Z,9.87
2019-02-06T13:33:40.502Z,10.87
2019-02-06T13:36:44.331Z,10.30
2019-02-06T13:39:48.208Z,11.90
2019-02-06T13:42:52.228Z,12.10
2019-02-06T13:45:56.017Z,9.37
2019-02-06T13:48:59.905Z,9.80
2019-02-06T13:52:03.968Z,9.27
2019-02-06T13:55:09.627Z,9.43
2019-02-06T13:58:20.146Z,9.80
2019-02-06T14:01:25.811Z,10.47
2019-02-06T14:04:24.717Z,12.50
2019-02-06T14:07:28.682Z,11.90
2019-02-06T14:10:32.719Z,12.20
2019-02-06T14:13:36.986Z,11.53
2019-02-06T14:16:40.781Z,11.87
2019-02-06T14:19:44.734Z,12.93
2019-02-06T14:22:55.517Z,11.43
2019-02-06T14:26:20.661Z,11.33
2019-02-06T14:29:49.051Z,13.03
2019-02-06T14:33:55.586Z,10.50
2019-02-06T14:37:27.771Z,11.10
2019-02-06T14:41:08.304Z,10.93
2019-02-06T14:44:39.746Z,9.73
2019-02-06T14:48:10.685Z,9.50
2019-02-06T14:52:00.125Z,8.30
2019-02-06T14:55:17.659Z,11.77
2019-02-06T14:59:06.211Z,9.47
2019-02-06T15:02:53.255Z,10.97
2019-02-06T15:06:09.157Z,14.83
2019-02-06T15:09:55.781Z,12.93
2019-02-06T15:13:34.560Z,13.00
2019-02-06T15:17:21.533Z,15.53
2019-02-06T15:21:18.218Z,21.63
2019-02-06T15:24:40.156Z,21.03
2019-02-06T15:28:25.635Z,22.50
2019-02-06T15:32:02.812Z,22.20
2019-02-06T15:35:32.630Z,23.00
2019-02-06T15:38:46.893Z,29.70
2019-02-06T15:42:31.128Z,27.03
2019-02-06T15:45:58.012Z,31.20
2019-02-06T15:49:10.956Z,40.90
2019-02-06T15:53:05.307Z,39.03
2019-02-06T15:56:56.140Z,35.67
2019-02-06T16:00:19.188Z,42.57
2019-02-06T16:04:15.243Z,38.43
2019-02-06T16:07:50.478Z,68.50
2019-02-06T16:11:41.655Z,73.57
2019-02-06T16:15:07.616Z,55.23
2019-02-06T16:18:35.230Z,61.07
2019-02-06T16:22:44.679Z,51.37
2019-02-06T16:25:59.620Z,48.13
2019-02-06T16:29:38.914Z,60.83
2019-02-06T16:33:16.959Z,49.30
2019-02-06T16:36:43.523Z,49.50
2019-02-06T16:40:14.281Z,60.20
2019-02-06T16:43:38.004Z,53.37
2019-02-06T16:47:32.466Z,61.50
2019-02-06T16:50:57.110Z,74.27
2019-02-06T16:54:38.053Z,58.33
2019-02-06T16:58:23.257Z,61.90
2019-02-06T17:01:43.891Z,51.80
2019-02-06T17:05:31.262Z,47.43
2019-02-06T17:09:15.602Z,55.87
2019-02-06T17:12:31.974Z,59.33
2019-02-06T17:16:08.853Z,61.90
2019-02-06T17:19:56.749Z,60.73
2019-02-06T17:23:29.970Z,68.73
2019-02-06T17:26:53.563Z,70.87
2019-02-06T17:30:29.578Z,50.03
2019-02-06T17:34:00.107Z,50.03
2019-02-06T17:37:35.106Z,51.67
2019-02-06T17:41:00.186Z,50.90
2019-02-06T17:44:33.828Z,49.40
2019-02-06T17:48:10.065Z,50.37
2019-02-06T17:52:04.626Z,66.77
2019-02-06T17:55:19.405Z,55.83
2019-02-06T17:58:23.349Z,45.93
2019-02-06T18:01:37.032Z,46.40
2019-02-06T18:04:43.651Z,51.37
2019-02-06T18:07:47.531Z,51.70
2019-02-06T18:10:51.432Z,51.47
2019-02-06T18:13:55.330Z,53.60
2019-02-06T18:16:59.884Z,53.00
2019-02-06T18:20:05.242Z,64.83
2019-02-06T18:23:09.120Z,54.53
2019-02-06T18:26:13.085Z,57.23
2019-02-06T18:29:17.038Z,51.63
2019-02-06T18:32:21.012Z,44.10
2019-02-06T18:35:24.897Z,45.60
2019-02-06T18:38:28.712Z,43.47
2019-02-06T18:41:32.598Z,43.93
2019-02-06T18:44:36.434Z,47.77
2019-02-06T18:47:40.319Z,53.80
2019-02-06T18:50:44.313Z,46.30
2019-02-06T18:53:48.688Z,45.43
2019-02-06T18:56:52.606Z,45.70
2019-02-06T18:59:56.499Z,47.50
2019-02-06T19:03:00.570Z,45.17
2019-02-06T19:06:04.593Z,63.33
2019-02-06T19:09:13.841Z,55.47
2019-02-06T19:12:17.913Z,41.50
2019-02-06T19:15:21.820Z,59.90
2019-02-06T19:18:26.083Z,55.57
2019-02-06T19:21:29.983Z,44.37
2019-02-06T19:24:33.787Z,49.03
2019-02-06T19:27:38.036Z,48.70
2019-02-06T19:30:41.882Z,58.47
2019-02-06T19:33:45.704Z,54.57
2019-02-06T19:36:49.583Z,60.30
2019-02-06T19:39:53.525Z,69.33
2019-02-06T19:43:00.413Z,58.63
2019-02-06T19:46:03.077Z,64.57
2019-02-06T19:49:06.894Z,58.13
2019-02-06T19:52:10.826Z,69.57
2019-02-06T19:55:14.817Z,70.47
2019-02-06T19:58:18.637Z,64.50
2019-02-06T20:01:22.994Z,66.50
2019-02-06T20:04:26.838Z,78.17
2019-02-06T20:07:30.747Z,58.13
2019-02-06T20:10:37.210Z,66.33
2019-02-06T20:13:41.039Z,52.37
2019-02-06T20:16:44.850Z,63.37
2019-02-06T20:19:48.739Z,68.93
2019-02-06T20:22:52.675Z,67.40
2019-02-06T20:25:59.877Z,65.10
2019-02-06T20:29:04.346Z,59.17
2019-02-06T20:32:08.774Z,77.00
2019-02-06T20:35:13.889Z,57.10
2019-02-06T20:38:17.896Z,57.60
2019-02-06T20:41:21.940Z,64.43
2019-02-06T20:44:26.041Z,53.87
2019-02-06T20:47:29.818Z,61.40
2019-02-06T20:50:34.551Z,62.97
2019-02-06T20:53:38.777Z,62.47
2019-02-06T20:56:42.949Z,68.90
2019-02-06T20:59:47.107Z,58.90
2019-02-06T21:02:51.496Z,56.47
2019-02-06T21:05:55.333Z,66.10
2019-02-06T21:08:59.218Z,60.33
2019-02-06T21:12:03.572Z,62.80
2019-02-06T21:15:07.677Z,75.00
2019-02-06T21:18:11.508Z,56.10
2019-02-06T21:21:15.876Z,80.23
2019-02-06T21:24:20.014Z,84.73
2019-02-06T21:27:23.902Z,63.13
2019-02-06T21:30:31.534Z,88.10
2019-02-06T21:33:35.408Z,69.03
2019-02-06T21:36:39.247Z,73.77
2019-02-06T21:39:43.750Z,79.63
2019-02-06T21:42:47.929Z,89.83
2019-02-06T21:45:52.039Z,94.93
2019-02-06T21:48:56.342Z,75.67
2019-02-06T21:52:00.152Z,94.97
2019-02-06T21:55:04.663Z,108.60
2019-02-06T21:58:09.116Z,86.33
2019-02-06T22:01:12.933Z,111.40
2019-02-06T22:04:19.138Z,78.20
2019-02-06T22:07:22.954Z,92.90
2019-02-06T22:10:29.403Z,95.60
2019-02-06T22:13:33.213Z,96.17
2019-02-06T22:16:37.045Z,108.93
2019-02-06T22:19:41.093Z,75.33
2019-02-06T22:22:45.087Z,102.67
2019-02-06T22:25:48.904Z,87.03
2019-02-06T22:28:53.524Z,87.47
2019-02-06T22:31:57.344Z,96.63
2019-02-06T22:35:01.173Z,109.07
2019-02-06T22:38:05.332Z,69.80
2019-02-06T22:41:10.234Z,117.33
2019-02-06T22:44:14.133Z,106.70
2019-02-06T22:47:18.998Z,115.77
2019-02-06T22:50:24.534Z,148.53
2019-02-06T22:53:28.443Z,149.07
2019-02-06T22:56:32.362Z,143.07
2019-02-06T22:59:36.243Z,134.33
2019-02-06T23:02:40.060Z,138.33
2019-02-06T23:05:43.894Z,150.20
2019-02-06T23:08:47.848Z,122.70
2019-02-06T23:11:51.770Z,107.70
2019-02-06T23:14:55.584Z,108.57
2019-02-06T23:17:59.496Z,114.67
2019-02-06T23:21:03.461Z,158.30
2019-02-06T23:24:07.455Z,163.30
2019-02-06T23:27:11.374Z,244.43
2019-02-06T23:30:15.346Z,169.40
2019-02-06T23:33:19.498Z,233.07
2019-02-06T23:36:23.403Z,168.77
2019-02-06T23:39:27.309Z,289.37
2019-02-06T23:42:31.499Z,221.87
2019-02-06T23:45:35.487Z,178.43
2019-02-06T23:48:39.437Z,343.17
2019-02-06T23:51:43.633Z,247.77
2019-02-06T23:54:47.482Z,274.27
2019-02-06T23:57:51.360Z,163.07
